Glennallen, Alaska
Current Conditions -  °F | °C
As of 7:53 PM on Wednesday 22 Oct 2014 (Local Time) from PAGK Reporting Station
Overcast Overcast  
Wind Chill:   Ceiling: 12000
Heat Index: 15°   Visibility: 10mi
Dew Point: 13°   Wind: 5mph
Humidity: 91%   Direction: 360°N
Pressure: 29.48"   Gusts: NA
Location:  62.11°N, 145.55°W
Report Text: PAGK 230353Z AUTO 36004KT 10SM FEW027 OVC120 M09/M11 A2948 RMK AO2 SLP022 T10941106 TSNO
Loading
Personal Weather Stations






























Interactive Weather Map
Tropical Storm Tracking
New forecast layout! Learn more

10-Day Weather Forecast

Advertisements
Track Severe Weather on mobile